Terminal Aerodrome Forecast
Issued by NWS Houston/Galveston, TX

Home | Current Version | Previous Version | Text Only | Print | Product List | Glossary On
Versions: 1 2 3 4 5 6 7 8 9 10 11 12 13 14 15 16 17 18 19 20 21 22 23 24
000
FTUS44 KHGX 010120 AAA
TAFGLS
TAF AMD
KGLS 010120Z 0101/0124 09007KT 6SM BR SCT007 OVC020
      TEMPO 0101/0104 BKN007 OVC020
     FM010400 07011KT 4SM BR OVC007
     FM011500 13010KT P6SM VCSH BKN015
     FM011800 13008KT P6SM BKN030=

USA.gov is the U.S. government's official web portal to all federal, state and local government web resources and services.